| time (UTC) | temp F | wind direction | speed MPH | gust MPH | rain 1hr in | rain 24hr in | rain mn in | humidity % | barometer mb |
| 20260906073058 | 67 | 44 | 0.0 | 3.0 | 0.00 | 0.00 | 0.00 | 88 | 1014.4 |
| 20260906071559 | 67 | 47 | 0.0 | 3.0 | 0.00 | 0.00 | 0.00 | 88 | 1014.4 |
| 20260906070058 | 68 | 45 | 0.0 | 5.0 | 0.00 | 0.00 | 0.00 | 88 | 1014.4 |
| 20260906064555 | 68 | 42 | 0.0 | 3.0 | 0.00 | 0.00 | 0.00 | 88 | 1014.5 |
| 20260906063055 | 68 | 53 | 0.0 | 2.0 | 0.00 | 0.00 | 0.00 | 88 | 1014.4 |
| 20260906061557 | 67 | 328 | 0.0 | 2.0 | 0.00 | 0.00 | 0.00 | 88 | 1014.4 |
| 20260906060053 | 67 | 71 | 0.0 | 1.0 | 0.00 | 0.00 | 0.00 | 88 | 1014.3 |
| 20260906054601 | 68 | 52 | 0.0 | 5.0 | 0.00 | 0.00 | 0.00 | 88 | 1014.1 |
| 20260906053056 | 68 | 50 | 1.0 | 4.0 | 0.00 | 0.00 | 0.00 | 88 | 1014.0 |
| 20260906051605 | 68 | 67 | 0.0 | 3.0 | 0.00 | 0.00 | 0.00 | 88 | 1014.0 |
| 20260906050046 | 68 | 56 | 0.0 | 2.0 | 0.00 | 0.00 | 0.00 | 89 | 1014.0 |
| 20260906044551 | 69 | 68 | 0.0 | 1.0 | 0.00 | 0.00 | 0.00 | 89 | 1014.0 |
| 20260906043044 | 69 | 57 | 0.0 | 4.0 | 0.00 | 0.00 | 0.00 | 88 | 1013.6 |
| 20260906041537 | 70 | 43 | 0.0 | 7.0 | 0.00 | 0.00 | 0.00 | 88 | 1013.6 |
| 20260906034534 | 71 | 46 | 1.0 | 11.0 | 0.00 | 0.00 | 0.00 | 88 | 1013.7 |
| 20260906033045 | 72 | 29 | 2.0 | 7.0 | 0.00 | 0.00 | 0.00 | 88 | 1013.7 |
| 20260906031531 | 72 | 77 | 0.0 | 7.0 | 0.00 | 0.00 | 0.00 | 88 | 1013.7 |
| 20260906030030 | 72 | 56 | 2.0 | 7.0 | 0.00 | 0.00 | 0.00 | 88 | 1013.4 |
| 20260906024528 | 73 | 44 | 1.0 | 9.0 | 0.00 | 0.00 | 0.00 | 88 | 1013.1 |
| 20260906023026 | 73 | 11 | 0.0 | 7.0 | 0.00 | 0.00 | 0.00 | 88 | 1012.9 |
| 20260906021525 | 74 | 41 | 2.0 | 11.0 | 0.00 | 0.00 | 0.00 | 88 | 1012.7 |
| 20260906020024 | 75 | 51 | 2.0 | 8.0 | 0.00 | 0.00 | 0.00 | 87 | 1012.7 |
| 20260906014527 | 75 | 46 | 0.0 | 11.0 | 0.00 | 0.00 | 0.00 | 87 | 1012.4 |
| 20260906013023 | 75 | 50 | 2.0 | 8.0 | 0.00 | 0.00 | 0.00 | 87 | 1012.0 |
| 20260906011522 | 75 | 48 | 2.0 | 7.0 | 0.00 | 0.00 | 0.00 | 87 | 1011.7 |
| 20260906010022 | 77 | 53 | 0.0 | 10.0 | 0.00 | 0.00 | 0.00 | 87 | 1011.4 |
| 20260906004521 | 79 | 44 | 4.0 | 9.0 | 0.00 | 0.00 | 0.00 | 84 | 1011.5 |
| 20260906003021 | 81 | 57 | 2.0 | 8.0 | 0.00 | 0.00 | 0.00 | 81 | 1011.3 |
| 20260906001523 | 82 | 56 | 1.0 | 5.0 | 0.00 | 0.00 | 0.00 | 81 | 1010.9 |
| 20260906000020 | 83 | 28 | 0.0 | 1.0 | 0.00 | 0.00 | 0.00 | 81 | 1010.9 |
| 20260905234520 | 83 | 13 | 0.0 | 0.0 | 0.00 | 0.00 | 0.00 | 80 | 1010.9 |
| 20260905233019 | 84 | 6 | 0.0 | 0.0 | 0.00 | 0.00 | 0.00 | 79 | 1010.8 |
| 20260905231520 | 85 | 226 | 0.0 | 1.0 | 0.00 | 0.00 | 0.00 | 77 | 1010.6 |
| 20260905230017 | 85 | 259 | 0.0 | 1.0 | 0.00 | 0.00 | 0.00 | 76 | 1010.6 |
| 20260905224538 | 86 | 59 | 0.0 | 2.0 | 0.00 | 0.00 | 0.00 | 76 | 1010.5 |
| 20260905223021 | 86 | 6 | 0.0 | 5.0 | 0.00 | 0.00 | 0.00 | 74 | 1010.5 |
| 20260905221515 | 86 | 50 | 0.0 | 6.0 | 0.00 | 0.00 | 0.00 | 75 | 1010.5 |
| 20260905220015 | 86 | 45 | 1.0 | 10.0 | 0.00 | 0.00 | 0.00 | 75 | 1010.5 |
| 20260905214515 | 86 | 28 | 1.0 | 6.0 | 0.00 | 0.00 | 0.00 | 77 | 1010.3 |
| 20260905213014 | 86 | 6 | 3.0 | 8.0 | 0.00 | 0.00 | 0.00 | 76 | 1010.1 |
| 20260905211534 | 88 | 64 | 3.0 | 9.0 | 0.00 | 0.00 | 0.00 | 74 | 1010.1 |
| 20260905210020 | 89 | 23 | 2.0 | 6.0 | 0.00 | 0.00 | 0.00 | 70 | 1009.9 |
| 20260905204511 | 92 | 275 | 0.0 | 6.0 | 0.00 | 0.00 | 0.00 | 66 | 1009.8 |
| 20260905203009 | 91 | 270 | 0.0 | 5.0 | 0.00 | 0.00 | 0.00 | 67 | 1009.9 |
| 20260905201504 | 90 | 242 | 0.0 | 4.0 | 0.00 | 0.00 | 0.00 | 67 | 1010.2 |
| 20260905200011 | 89 | 283 | 0.0 | 8.0 | 0.00 | 0.00 | 0.00 | 70 | 1010.5 |
| 20260905194503 | 89 | 264 | 1.0 | 6.0 | 0.00 | 0.00 | 0.00 | 70 | 1010.7 |
| 20260905193002 | 88 | 274 | 0.0 | 5.0 | 0.00 | 0.00 | 0.00 | 71 | 1010.8 |
| 20260905191502 | 88 | 280 | 0.0 | 6.0 | 0.00 | 0.00 | 0.00 | 71 | 1010.9 |
| 20260905190001 | 87 | 276 | 0.0 | 3.0 | 0.00 | 0.00 | 0.00 | 70 | 1011.1 |
| 20260905184501 | 90 | 219 | 0.0 | 5.0 | 0.00 | 0.00 | 0.00 | 66 | 1011.2 |
| 20260905183102 | 90 | 228 | 0.0 | 6.0 | 0.00 | 0.00 | 0.00 | 65 | 1011.3 |
| 20260905181558 | 90 | 296 | 0.0 | 9.0 | 0.00 | 0.00 | 0.00 | 65 | 1011.3 |
| 20260905174554 | 88 | 250 | 1.0 | 10.0 | 0.00 | 0.00 | 0.00 | 66 | 1011.7 |
| 20260905173106 | 88 | 141 | 1.0 | 7.0 | 0.00 | 0.00 | 0.00 | 65 | 1011.9 |
| 20260905171548 | 87 | 226 | 0.0 | 6.0 | 0.00 | 0.00 | 0.00 | 66 | 1012.2 |
| 20260905170055 | 86 | 226 | 0.0 | 8.0 | 0.00 | 0.00 | 0.00 | 67 | 1012.4 |
| 20260905164543 | 85 | 200 | 2.0 | 7.0 | 0.00 | 0.03 | 0.00 | 68 | 1012.7 |
| 20260905163041 | 85 | 248 | 1.0 | 6.0 | 0.00 | 0.03 | 0.00 | 69 | 1012.8 |
| 20260905161557 | 84 | 120 | 1.0 | 8.0 | 0.00 | 0.03 | 0.00 | 68 | 1012.8 |
| 20260905160035 | 83 | 137 | 0.0 | 5.0 | 0.00 | 0.03 | 0.00 | 71 | 1012.7 |
| 20260905154534 | 83 | 174 | 2.0 | 7.0 | 0.00 | 0.03 | 0.00 | 71 | 1012.6 |
| 20260905153033 | 83 | 138 | 2.0 | 8.0 | 0.00 | 0.03 | 0.00 | 71 | 1012.5 |
| 20260905151527 | 80 | 180 | 2.0 | 9.0 | 0.00 | 0.03 | 0.00 | 74 | 1012.3 |
| 20260905150026 | 80 | 143 | 2.0 | 10.0 | 0.00 | 0.03 | 0.00 | 74 | 1012.8 |
| 20260905144525 | 79 | 211 | 0.0 | 5.0 | 0.00 | 0.03 | 0.00 | 77 | 1012.6 |
| 20260905143022 | 77 | 132 | 2.0 | 10.0 | 0.00 | 0.03 | 0.00 | 79 | 1012.5 |
| 20260905141520 | 77 | 178 | 2.0 | 8.0 | 0.00 | 0.03 | 0.00 | 80 | 1012.5 |
| 20260905140019 | 75 | 108 | 3.0 | 10.0 | 0.00 | 0.03 | 0.00 | 82 | 1012.4 |
| 20260905134519 | 75 | 222 | 0.0 | 7.0 | 0.00 | 0.03 | 0.00 | 83 | 1012.3 |
| 20260905133024 | 75 | 127 | 2.0 | 8.0 | 0.00 | 0.03 | 0.00 | 82 | 1012.3 |
| 20260905131523 | 74 | 132 | 4.0 | 10.0 | 0.00 | 0.03 | 0.00 | 84 | 1012.5 |
| 20260905130014 | 73 | 129 | 1.0 | 10.0 | 0.00 | 0.03 | 0.00 | 86 | 1012.6 |
| 20260905124513 | 72 | 140 | 2.0 | 10.0 | 0.00 | 0.03 | 0.00 | 87 | 1012.6 |
| 20260905123012 | 71 | 118 | 4.0 | 8.0 | 0.00 | 0.03 | 0.00 | 87 | 1012.6 |
| 20260905121510 | 70 | 117 | 2.0 | 8.0 | 0.00 | 0.03 | 0.00 | 88 | 1012.6 |
| 20260905120008 | 70 | 132 | 1.0 | 9.0 | 0.00 | 0.03 | 0.00 | 88 | 1012.6 |
| 20260905114506 | 70 | 87 | 3.0 | 9.0 | 0.00 | 0.03 | 0.00 | 88 | 1012.6 |
| 20260905113006 | 70 | 145 | 2.0 | 10.0 | 0.00 | 0.03 | 0.00 | 88 | 1012.5 |
| 20260905111506 | 70 | 156 | 4.0 | 11.0 | 0.00 | 0.03 | 0.00 | 88 | 1012.3 |
| 20260905110003 | 70 | 146 | 3.0 | 11.0 | 0.00 | 0.03 | 0.00 | 88 | 1012.4 |
| 20260905104600 | 71 | 138 | 0.0 | 12.0 | 0.00 | 0.03 | 0.00 | 87 | 1012.3 |
| 20260905103101 | 72 | 129 | 2.0 | 11.0 | 0.00 | 0.03 | 0.00 | 86 | 1012.5 |
| 20260905101600 | 75 | 95 | 2.0 | 10.0 | 0.00 | 0.03 | 0.00 | 85 | 1012.3 |
| 20260905100117 | 74 | 95 | 3.0 | 9.0 | 0.00 | 0.03 | 0.00 | 89 | 1012.2 |
| 20260905094551 | 73 | 188 | 0.0 | 0.0 | 0.00 | 0.03 | 0.00 | 89 | 1011.4 |
| 20260905093048 | 73 | 187 | 0.0 | 0.0 | 0.00 | 0.03 | 0.00 | 89 | 1011.3 |
| 20260905091556 | 74 | 187 | 0.0 | 0.0 | 0.00 | 0.03 | 0.00 | 88 | 1011.3 |
| 20260905090044 | 74 | 187 | 0.0 | 0.0 | 0.00 | 0.03 | 0.00 | 88 | 1011.2 |
| 20260905084549 | 75 | 187 | 0.0 | 0.0 | 0.00 | 0.03 | 0.00 | 88 | 1011.3 |
| 20260905083102 | 75 | 187 | 0.0 | 0.0 | 0.00 | 0.03 | 0.00 | 88 | 1011.3 |
| 20260905081540 | 75 | 187 | 0.0 | 0.0 | 0.00 | 0.03 | 0.00 | 88 | 1011.2 |
| 20260905080040 | 75 | 232 | 0.0 | 0.0 | 0.00 | 0.03 | 0.00 | 88 | 1011.0 |
| 20260905074539 | 76 | 232 | 0.0 | 0.0 | 0.00 | 0.03 | 0.00 | 88 | 1011.0 |